Pedralva, Brazil
Current Conditions -  °F | °C
As of 3:00 PM on Monday 20 Oct 2014 (Local Time) from SBGW Reporting Station
Scattered Clouds Scattered Clouds  
Wind Chill: 82°   Ceiling: Unl
Heat Index: 83°   Visibility: 5mi
Dew Point: 63°   Wind: 10mph
Humidity: 51%   Direction: 260°W
Pressure: 29.97"   Gusts: NA
Location:  22.24°S, 45.47°W
Report Text: SBGW 201800Z 26009KT 8000 SCT025 SCT100 28/17 Q1015
Loading
Personal Weather Stations






























Interactive Weather Map
Tropical Storm Tracking
New forecast layout! Learn more

10-Day Weather Forecast

Advertisements
Track Severe Weather on mobile